createdAt,value
2022-11-09T00:00:54.459Z,11.75
2022-11-09T00:03:21.317Z,11.76
2022-11-09T00:05:58.241Z,11.75
2022-11-09T00:08:24.881Z,11.74
2022-11-09T00:10:51.599Z,11.69
2022-11-09T00:13:18.378Z,11.69
2022-11-09T00:15:45.113Z,11.66
2022-11-09T00:18:11.574Z,11.62
2022-11-09T00:20:38.048Z,11.59
2022-11-09T00:23:04.526Z,11.57
2022-11-09T00:25:31.084Z,11.55
2022-11-09T00:27:57.618Z,11.55
2022-11-09T00:30:24.079Z,11.57
2022-11-09T00:32:50.525Z,11.59
2022-11-09T00:35:17.121Z,11.64
2022-11-09T00:37:43.696Z,11.67
2022-11-09T00:40:11.024Z,11.69
2022-11-09T00:42:37.510Z,11.69
2022-11-09T00:45:04.206Z,11.67
2022-11-09T00:47:30.719Z,11.66
2022-11-09T00:49:57.163Z,11.58
2022-11-09T00:52:23.695Z,11.51
2022-11-09T00:54:50.189Z,11.48
2022-11-09T00:57:17.175Z,11.43
2022-11-09T00:59:43.690Z,11.41
2022-11-09T01:02:10.126Z,11.36
2022-11-09T01:04:36.748Z,11.32
2022-11-09T01:07:03.323Z,11.28
2022-11-09T01:09:29.964Z,11.24
2022-11-09T01:11:56.421Z,11.24
2022-11-09T01:14:23.698Z,11.23
2022-11-09T01:16:50.363Z,11.20
2022-11-09T01:19:17.187Z,11.20
2022-11-09T01:21:43.838Z,11.23
2022-11-09T01:24:10.443Z,11.23
2022-11-09T01:26:37.553Z,11.25
2022-11-09T01:29:04.005Z,11.31
2022-11-09T01:31:30.698Z,11.31
2022-11-09T01:33:57.132Z,11.29
2022-11-09T01:36:24.604Z,11.28
2022-11-09T01:38:51.236Z,11.27
2022-11-09T01:41:24.585Z,11.25
2022-11-09T01:44:06.384Z,11.21
2022-11-09T01:46:59.038Z,11.18
2022-11-09T01:49:52.870Z,11.08
2022-11-09T01:52:24.591Z,11.04
2022-11-09T01:54:58.420Z,10.99
2022-11-09T01:57:31.736Z,10.96
2022-11-09T02:00:02.836Z,10.92
2022-11-09T02:02:29.304Z,10.88
2022-11-09T02:05:01.307Z,10.86
2022-11-09T02:07:28.418Z,10.89
2022-11-09T02:10:07.305Z,10.93
2022-11-09T02:12:35.319Z,10.97
2022-11-09T02:15:05.187Z,10.99
2022-11-09T02:17:32.580Z,11.07
2022-11-09T02:19:59.063Z,11.10
2022-11-09T02:22:25.906Z,11.12
2022-11-09T02:24:56.146Z,11.11
2022-11-09T02:27:23.341Z,11.08
2022-11-09T02:29:49.983Z,11.09
2022-11-09T02:32:20.592Z,11.07
2022-11-09T02:34:47.072Z,11.06
2022-11-09T02:37:13.742Z,11.06
2022-11-09T02:39:40.760Z,11.08
2022-11-09T02:42:13.006Z,11.12
2022-11-09T02:44:46.113Z,11.18
2022-11-09T02:47:12.698Z,11.22
2022-11-09T02:49:39.134Z,11.25
2022-11-09T02:52:05.858Z,11.24
2022-11-09T02:54:32.486Z,11.23
2022-11-09T02:56:58.978Z,11.22
2022-11-09T02:59:25.554Z,11.21
2022-11-09T03:01:52.138Z,11.23
2022-11-09T03:04:18.608Z,11.22
2022-11-09T03:06:45.136Z,11.25
2022-11-09T03:09:12.626Z,11.27
2022-11-09T03:11:40.786Z,11.29
2022-11-09T03:14:09.809Z,11.30
2022-11-09T03:16:39.832Z,11.29
2022-11-09T03:19:06.911Z,11.29
2022-11-09T03:21:33.354Z,11.26
2022-11-09T03:23:59.848Z,11.20
2022-11-09T03:26:26.517Z,11.16
2022-11-09T03:28:52.993Z,11.12
2022-11-09T03:31:19.638Z,11.11
2022-11-09T03:33:46.166Z,11.04
2022-11-09T03:36:12.743Z,11.00
2022-11-09T03:38:39.201Z,10.98
2022-11-09T03:41:05.716Z,10.94
2022-11-09T03:43:32.215Z,10.91
2022-11-09T03:45:58.765Z,10.89
2022-11-09T03:48:25.359Z,10.88
2022-11-09T03:50:51.891Z,10.88
2022-11-09T03:53:18.846Z,10.88
2022-11-09T03:55:45.707Z,10.88
2022-11-09T03:58:13.225Z,10.87
2022-11-09T04:00:39.954Z,10.88
2022-11-09T04:03:06.369Z,10.86
2022-11-09T04:05:32.873Z,10.86
2022-11-09T04:07:59.721Z,10.86
2022-11-09T04:10:27.369Z,10.88
2022-11-09T04:12:54.433Z,10.91
2022-11-09T04:15:21.296Z,10.90
2022-11-09T04:18:03.618Z,10.87
2022-11-09T04:20:31.486Z,10.84
2022-11-09T04:23:03.438Z,10.82
2022-11-09T04:25:33.541Z,10.78
2022-11-09T04:28:00.832Z,10.77
2022-11-09T04:30:29.189Z,10.77
2022-11-09T04:32:59.635Z,10.75
2022-11-09T04:35:28.678Z,10.77
2022-11-09T04:37:56.350Z,10.76
2022-11-09T04:40:24.530Z,10.77
2022-11-09T04:42:51.315Z,10.75
2022-11-09T04:45:18.057Z,10.75
2022-11-09T04:47:44.470Z,10.76
2022-11-09T04:50:11.431Z,10.73
2022-11-09T04:52:37.950Z,10.75
2022-11-09T04:55:05.637Z,10.78
2022-11-09T04:57:32.114Z,10.78
2022-11-09T04:59:58.577Z,10.78
2022-11-09T05:02:25.009Z,10.78
2022-11-09T05:04:51.441Z,10.77
2022-11-09T05:07:18.232Z,10.76
2022-11-09T05:09:44.677Z,10.74
2022-11-09T05:12:11.397Z,10.74
2022-11-09T05:14:37.975Z,10.73
2022-11-09T05:17:04.516Z,10.73
2022-11-09T05:19:30.974Z,10.74
2022-11-09T05:22:17.394Z,10.70
2022-11-09T05:24:43.913Z,10.67
2022-11-09T05:27:10.387Z,10.63
2022-11-09T05:29:36.866Z,10.63
2022-11-09T05:32:03.409Z,10.62
2022-11-09T05:34:29.825Z,10.59
2022-11-09T05:37:00.720Z,10.57
2022-11-09T05:39:29.719Z,10.56
2022-11-09T05:41:56.147Z,10.59
2022-11-09T05:44:22.620Z,10.59
2022-11-09T05:46:49.155Z,10.59
2022-11-09T05:49:15.641Z,10.61
2022-11-09T05:51:42.059Z,10.61
2022-11-09T05:54:08.847Z,10.61
2022-11-09T05:56:35.331Z,10.59
2022-11-09T05:59:01.761Z,10.58
2022-11-09T06:01:28.246Z,10.57
2022-11-09T06:03:55.192Z,10.57
2022-11-09T06:06:21.702Z,10.55
2022-11-09T06:08:49.951Z,10.55
2022-11-09T06:11:23.268Z,10.56
2022-11-09T06:13:50.968Z,10.57
2022-11-09T06:16:17.383Z,10.59
2022-11-09T06:18:43.873Z,10.61
2022-11-09T06:21:10.693Z,10.57
2022-11-09T06:23:37.271Z,10.56
2022-11-09T06:26:10.051Z,10.54
2022-11-09T06:28:38.035Z,10.52
2022-11-09T06:31:06.921Z,10.49
2022-11-09T06:33:34.978Z,10.46
2022-11-09T06:36:02.023Z,10.45
2022-11-09T06:38:28.748Z,10.44
2022-11-09T06:40:57.712Z,10.41
2022-11-09T06:43:25.154Z,10.39
2022-11-09T06:45:52.305Z,10.37
2022-11-09T06:48:19.432Z,10.36
2022-11-09T06:50:46.283Z,10.34
2022-11-09T06:53:14.888Z,10.32
2022-11-09T06:55:44.512Z,10.30
2022-11-09T06:58:15.947Z,10.26
2022-11-09T07:00:43.578Z,10.26
2022-11-09T07:03:14.810Z,10.26
2022-11-09T07:05:41.402Z,10.24
2022-11-09T07:08:07.873Z,10.24
2022-11-09T07:10:34.383Z,10.26
2022-11-09T07:13:03.203Z,10.26
2022-11-09T07:15:29.989Z,10.26
2022-11-09T07:17:57.688Z,10.28
2022-11-09T07:20:24.072Z,10.30
2022-11-09T07:22:50.939Z,10.29
2022-11-09T07:25:17.457Z,10.32
2022-11-09T07:27:44.107Z,10.34
2022-11-09T07:30:11.179Z,10.40
2022-11-09T07:33:08.697Z,10.40
2022-11-09T07:35:26.399Z,10.51
2022-11-09T07:37:53.165Z,10.60
2022-11-09T07:40:20.068Z,10.68
2022-11-09T07:42:46.831Z,10.71
2022-11-09T07:45:13.369Z,10.75
2022-11-09T07:47:39.854Z,10.76
2022-11-09T07:50:06.852Z,10.79
2022-11-09T07:52:33.298Z,10.79
2022-11-09T07:54:59.739Z,10.80
2022-11-09T07:57:26.213Z,10.81
2022-11-09T07:59:53.665Z,10.84
2022-11-09T08:02:20.290Z,10.85
2022-11-09T08:04:46.924Z,10.83
2022-11-09T08:07:13.454Z,10.83
2022-11-09T08:09:40.008Z,10.81
2022-11-09T08:12:06.768Z,10.84
2022-11-09T08:14:33.667Z,10.85
2022-11-09T08:17:00.166Z,10.86
2022-11-09T08:19:26.634Z,10.88
2022-11-09T08:21:57.355Z,10.88
2022-11-09T08:24:24.412Z,10.92
2022-11-09T08:26:50.874Z,10.97
2022-11-09T08:29:17.551Z,11.00
2022-11-09T08:31:44.141Z,11.03
2022-11-09T08:34:13.910Z,11.06
2022-11-09T08:36:40.429Z,11.09
2022-11-09T08:39:07.004Z,11.13
2022-11-09T08:41:33.843Z,11.19
2022-11-09T08:44:00.513Z,11.24
2022-11-09T08:46:27.011Z,11.27
2022-11-09T08:48:53.524Z,11.29
2022-11-09T08:51:20.038Z,11.33
2022-11-09T08:53:46.508Z,11.37
2022-11-09T08:56:13.088Z,11.48
2022-11-09T08:58:39.763Z,11.58
2022-11-09T09:01:12.203Z,11.59
2022-11-09T09:03:41.949Z,11.62
2022-11-09T09:06:08.906Z,11.65
2022-11-09T09:08:35.600Z,11.74
2022-11-09T09:11:05.651Z,11.77
2022-11-09T09:13:33.439Z,11.80
2022-11-09T09:16:13.029Z,11.85
2022-11-09T09:18:39.542Z,11.93
2022-11-09T09:21:10.753Z,12.05
2022-11-09T09:23:37.233Z,12.13
2022-11-09T09:26:04.269Z,12.25
2022-11-09T09:28:30.814Z,12.31
2022-11-09T09:30:59.709Z,12.33
2022-11-09T09:33:27.123Z,12.37
2022-11-09T09:35:58.031Z,12.43
2022-11-09T09:38:25.964Z,12.51
2022-11-09T09:41:01.536Z,12.60
2022-11-09T09:43:38.348Z,12.69
2022-11-09T09:46:20.086Z,12.79
2022-11-09T09:48:53.202Z,12.91
2022-11-09T09:51:28.578Z,12.99
2022-11-09T09:54:06.871Z,13.03
2022-11-09T09:56:41.040Z,12.93
2022-11-09T09:59:14.660Z,12.85
2022-11-09T10:01:44.302Z,12.82
2022-11-09T10:04:40.841Z,12.90
2022-11-09T10:07:17.611Z,13.00
2022-11-09T10:09:46.917Z,13.05
2022-11-09T10:12:59.118Z,13.14
2022-11-09T10:15:39.391Z,13.20
2022-11-09T10:18:34.933Z,13.28
2022-11-09T10:21:32.580Z,13.38
2022-11-09T10:25:12.871Z,13.54
2022-11-09T10:27:36.840Z,13.57
2022-11-09T10:30:14.989Z,13.57
2022-11-09T10:32:45.247Z,13.46
2022-11-09T10:35:22.431Z,13.37
2022-11-09T10:37:52.214Z,13.34
2022-11-09T10:40:30.315Z,13.37
2022-11-09T10:43:06.031Z,13.52
2022-11-09T10:45:37.859Z,13.61
2022-11-09T10:48:06.377Z,13.60
2022-11-09T10:50:39.998Z,13.69
2022-11-09T10:53:19.187Z,13.71
2022-11-09T10:55:55.001Z,13.75
2022-11-09T10:58:39.218Z,13.78
2022-11-09T11:01:23.130Z,13.82
2022-11-09T11:03:51.863Z,13.75
2022-11-09T11:06:27.857Z,13.66
2022-11-09T11:09:06.251Z,13.65
2022-11-09T11:11:36.423Z,13.68
2022-11-09T11:14:17.137Z,13.71
2022-11-09T11:16:48.424Z,13.76
2022-11-09T11:19:33.835Z,13.77
2022-11-09T11:22:11.953Z,13.71
2022-11-09T11:25:03.236Z,13.66
2022-11-09T11:27:32.596Z,13.68
2022-11-09T11:30:05.588Z,13.62
2022-11-09T11:32:32.824Z,13.56
2022-11-09T11:35:01.092Z,13.65
2022-11-09T11:37:37.884Z,13.59
2022-11-09T11:40:15.063Z,13.57
2022-11-09T11:42:55.865Z,13.42
2022-11-09T11:45:41.531Z,13.34
2022-11-09T11:48:27.305Z,13.38
2022-11-09T11:51:13.397Z,13.39
2022-11-09T11:53:43.389Z,13.40
2022-11-09T11:56:26.142Z,13.43
2022-11-09T11:59:19.918Z,13.34
2022-11-09T12:02:11.086Z,13.12
2022-11-09T12:05:08.816Z,12.82
2022-11-09T12:07:42.788Z,12.63
2022-11-09T12:10:28.624Z,12.53
2022-11-09T12:13:16.914Z,12.52
2022-11-09T12:15:49.518Z,12.64
2022-11-09T12:18:35.357Z,12.70
2022-11-09T12:21:27.459Z,12.69
2022-11-09T12:24:17.842Z,12.68
2022-11-09T12:27:25.640Z,12.74
2022-11-09T12:30:03.080Z,12.84
2022-11-09T12:32:55.384Z,12.81
2022-11-09T12:35:56.585Z,12.97
2022-11-09T12:38:29.089Z,13.05
2022-11-09T12:41:05.234Z,13.06
2022-11-09T12:43:34.755Z,13.05
2022-11-09T12:46:04.416Z,13.02
2022-11-09T12:48:35.479Z,13.03
2022-11-09T12:51:04.881Z,13.07
2022-11-09T12:53:39.040Z,13.08
2022-11-09T12:56:10.615Z,13.11
2022-11-09T12:58:39.476Z,13.20
2022-11-09T13:01:11.267Z,13.42
2022-11-09T13:03:40.873Z,13.53
2022-11-09T13:06:13.361Z,13.36
2022-11-09T13:08:41.783Z,13.18
2022-11-09T13:11:09.949Z,13.09
2022-11-09T13:13:36.750Z,13.15
2022-11-09T13:16:30.257Z,13.29
2022-11-09T13:18:56.742Z,13.28
2022-11-09T13:21:23.111Z,13.24
2022-11-09T13:24:10.396Z,13.33
2022-11-09T13:26:37.416Z,13.32
2022-11-09T13:29:06.858Z,13.26
2022-11-09T13:32:09.016Z,13.20
2022-11-09T13:34:57.584Z,13.15
2022-11-09T13:37:41.819Z,13.13
2022-11-09T13:40:33.024Z,13.13
2022-11-09T13:43:08.763Z,13.16
2022-11-09T13:45:38.399Z,13.34
2022-11-09T13:48:06.724Z,13.38
2022-11-09T13:50:34.985Z,13.41
2022-11-09T13:53:02.193Z,13.43
2022-11-09T13:55:39.320Z,13.49
2022-11-09T13:58:23.640Z,13.57
2022-11-09T14:00:50.192Z,13.49
2022-11-09T14:03:25.987Z,13.50
2022-11-09T14:05:56.176Z,13.66
2022-11-09T14:08:28.034Z,13.72
2022-11-09T14:11:16.423Z,13.62
2022-11-09T14:13:51.119Z,13.53
2022-11-09T14:16:37.593Z,13.50
2022-11-09T14:19:42.842Z,13.49
2022-11-09T14:22:16.251Z,13.43
2022-11-09T14:24:43.579Z,13.35
2022-11-09T14:27:09.984Z,13.29
2022-11-09T14:29:46.736Z,13.24
2022-11-09T14:32:36.901Z,13.18
2022-11-09T14:35:35.078Z,13.16
2022-11-09T14:38:14.961Z,13.16
2022-11-09T14:40:45.838Z,13.16
2022-11-09T14:43:30.542Z,13.16
2022-11-09T14:46:12.588Z,13.14
2022-11-09T14:48:43.298Z,13.12
2022-11-09T14:51:14.570Z,13.09
2022-11-09T14:53:42.742Z,13.05
2022-11-09T14:56:13.780Z,13.03
2022-11-09T14:58:43.927Z,12.96
2022-11-09T15:01:23.848Z,12.94
2022-11-09T15:04:22.737Z,12.91
2022-11-09T15:06:52.425Z,12.88
2022-11-09T15:09:21.780Z,12.85
2022-11-09T15:11:49.267Z,12.85
2022-11-09T15:14:27.863Z,12.83
2022-11-09T15:17:17.036Z,12.76
2022-11-09T15:19:58.241Z,12.68
2022-11-09T15:22:37.090Z,12.55
2022-11-09T15:25:24.655Z,12.46
2022-11-09T15:27:59.276Z,12.39
2022-11-09T15:30:31.767Z,12.32
2022-11-09T15:32:58.293Z,12.27
2022-11-09T15:35:25.349Z,12.24
2022-11-09T15:37:53.742Z,12.20
2022-11-09T15:40:22.964Z,12.18
2022-11-09T15:42:49.436Z,12.17
2022-11-09T15:45:19.717Z,12.18
2022-11-09T15:47:52.576Z,12.18
2022-11-09T15:50:22.790Z,12.18
2022-11-09T15:52:49.919Z,12.18
2022-11-09T15:55:22.201Z,12.15
2022-11-09T15:57:50.145Z,12.13
2022-11-09T16:00:20.969Z,12.06
2022-11-09T16:02:48.530Z,12.03
2022-11-09T16:05:15.839Z,12.01
2022-11-09T16:07:49.880Z,12.00
2022-11-09T16:10:17.779Z,11.97
2022-11-09T16:12:46.461Z,11.94
2022-11-09T16:15:13.434Z,11.90
2022-11-09T16:17:40.090Z,11.90
2022-11-09T16:20:07.381Z,11.89
2022-11-09T16:22:34.132Z,11.88
2022-11-09T16:25:00.665Z,11.90
2022-11-09T16:27:49.029Z,11.91
2022-11-09T16:30:14.960Z,11.90
2022-11-09T16:32:41.624Z,11.90
2022-11-09T16:35:25.979Z,11.90
2022-11-09T16:37:55.250Z,11.87
2022-11-09T16:40:22.830Z,11.86
2022-11-09T16:42:51.588Z,11.84
2022-11-09T16:45:18.035Z,11.83
2022-11-09T16:47:48.997Z,11.84
2022-11-09T16:50:15.861Z,11.84
2022-11-09T16:52:43.140Z,11.84
2022-11-09T16:55:10.212Z,11.84
2022-11-09T16:57:37.175Z,11.83
2022-11-09T17:00:05.824Z,11.81
2022-11-09T17:02:32.399Z,11.81
2022-11-09T17:04:58.905Z,11.79
2022-11-09T17:07:25.672Z,11.76
2022-11-09T17:09:52.104Z,11.72
2022-11-09T17:12:18.607Z,11.68
2022-11-09T17:14:45.040Z,11.64
2022-11-09T17:17:11.537Z,11.60
2022-11-09T17:19:38.259Z,11.58
2022-11-09T17:22:04.740Z,11.56
2022-11-09T17:24:31.715Z,11.55
2022-11-09T17:26:58.491Z,11.55
2022-11-09T17:29:25.057Z,11.51
2022-11-09T17:31:51.608Z,11.49
2022-11-09T17:34:18.359Z,11.47
2022-11-09T17:39:31.561Z,11.42
2022-11-09T17:41:58.012Z,11.43
2022-11-09T17:44:24.751Z,11.44
2022-11-09T17:46:51.163Z,11.43
2022-11-09T17:49:17.622Z,11.43
2022-11-09T17:51:44.371Z,11.46
2022-11-09T17:54:10.867Z,11.48
2022-11-09T17:56:37.365Z,11.47
2022-11-09T17:59:05.424Z,11.47
2022-11-09T18:01:36.442Z,11.43
2022-11-09T18:04:06.863Z,11.45
2022-11-09T18:06:33.953Z,11.45
2022-11-09T18:09:34.242Z,11.46
2022-11-09T18:11:47.767Z,11.47
2022-11-09T18:14:15.809Z,11.47
2022-11-09T18:16:42.876Z,11.50
2022-11-09T18:19:09.297Z,11.51
2022-11-09T18:21:35.742Z,11.51
2022-11-09T18:24:02.367Z,11.48
2022-11-09T18:26:31.222Z,11.44
2022-11-09T18:28:57.895Z,11.39
2022-11-09T18:31:24.565Z,11.36
2022-11-09T18:33:53.914Z,11.34
2022-11-09T18:36:21.685Z,11.33
2022-11-09T18:38:51.109Z,11.30
2022-11-09T18:41:20.484Z,11.32
2022-11-09T18:43:47.135Z,11.34
2022-11-09T18:46:16.060Z,11.34
2022-11-09T18:48:42.976Z,11.32
2022-11-09T18:51:10.713Z,11.32
2022-11-09T18:53:42.567Z,11.32
2022-11-09T18:56:19.069Z,11.31
2022-11-09T18:58:46.402Z,11.28
2022-11-09T19:01:13.643Z,11.25
2022-11-09T19:03:40.462Z,11.23
2022-11-09T19:06:15.674Z,11.23
2022-11-09T19:09:01.889Z,11.20
2022-11-09T19:11:29.967Z,11.21
2022-11-09T19:13:56.477Z,11.21
2022-11-09T19:16:24.087Z,11.23
2022-11-09T19:18:50.637Z,11.21
2022-11-09T19:21:35.682Z,11.18
2022-11-09T19:24:02.528Z,11.16
2022-11-09T19:26:29.396Z,11.14
2022-11-09T19:28:55.878Z,11.12
2022-11-09T19:31:25.824Z,11.12
2022-11-09T19:33:52.653Z,11.11
2022-11-09T19:36:30.301Z,11.12
2022-11-09T19:38:57.475Z,11.11
2022-11-09T19:41:25.260Z,11.10
2022-11-09T19:43:54.638Z,11.04
2022-11-09T19:46:22.038Z,10.97
2022-11-09T19:48:48.684Z,10.93
2022-11-09T19:51:16.514Z,10.88
2022-11-09T19:53:52.583Z,10.82
2022-11-09T19:56:20.858Z,10.78
2022-11-09T19:58:52.539Z,10.74
2022-11-09T20:01:19.585Z,10.71
2022-11-09T20:03:54.483Z,10.67
2022-11-09T20:06:22.461Z,10.66
2022-11-09T20:08:49.510Z,10.65
2022-11-09T20:11:36.673Z,10.64
2022-11-09T20:14:07.827Z,10.63
2022-11-09T20:16:35.804Z,10.60
2022-11-09T20:19:03.856Z,10.60
2022-11-09T20:21:30.404Z,10.58
2022-11-09T20:23:57.046Z,10.56
2022-11-09T20:26:23.832Z,10.53
2022-11-09T20:28:52.449Z,10.50
2022-11-09T20:31:19.774Z,10.46
2022-11-09T20:33:46.362Z,10.45
2022-11-09T20:36:12.859Z,10.45
2022-11-09T20:38:39.875Z,10.47
2022-11-09T20:41:10.126Z,10.45
2022-11-09T20:43:37.248Z,10.43
2022-11-09T20:46:05.925Z,10.40
2022-11-09T20:49:02.791Z,10.37
2022-11-09T20:51:19.856Z,10.34
2022-11-09T20:53:47.452Z,10.31
2022-11-09T20:56:14.540Z,10.31
2022-11-09T20:58:41.665Z,10.28
2022-11-09T21:01:20.815Z,10.27
2022-11-09T21:03:48.917Z,10.26
2022-11-09T21:06:15.488Z,10.25
2022-11-09T21:08:46.506Z,10.24
2022-11-09T21:11:13.150Z,10.19
2022-11-09T21:13:42.114Z,10.18
2022-11-09T21:16:13.914Z,10.15
2022-11-09T21:18:41.688Z,10.14
2022-11-09T21:21:11.406Z,10.10
2022-11-09T21:23:58.178Z,10.08
2022-11-09T21:26:43.479Z,10.03
2022-11-09T21:29:30.858Z,10.03
2022-11-09T21:31:57.697Z,10.04
2022-11-09T21:34:24.334Z,10.01
2022-11-09T21:36:51.088Z,10.00
2022-11-09T21:39:17.782Z,10.01
2022-11-09T21:41:44.472Z,9.99
2022-11-09T21:44:12.067Z,10.00
2022-11-09T21:46:40.121Z,9.99
2022-11-09T21:49:07.886Z,9.98
2022-11-09T21:51:35.695Z,9.97
2022-11-09T21:54:03.060Z,9.97
2022-11-09T21:56:29.570Z,9.97
2022-11-09T21:58:56.000Z,9.97
2022-11-09T22:01:22.925Z,9.96
2022-11-09T22:03:50.542Z,9.96
2022-11-09T22:06:17.222Z,9.96
2022-11-09T22:08:44.804Z,9.95
2022-11-09T22:11:42.015Z,9.98
2022-11-09T22:14:35.357Z,10.01
2022-11-09T22:17:05.167Z,10.03
2022-11-09T22:19:50.148Z,10.02
2022-11-09T22:22:16.607Z,10.03
2022-11-09T22:24:43.168Z,10.00
2022-11-09T22:27:09.932Z,9.95
2022-11-09T22:29:36.734Z,9.92
2022-11-09T22:32:04.118Z,9.89
2022-11-09T22:34:30.609Z,9.85
2022-11-09T22:36:57.316Z,9.84
2022-11-09T22:39:23.804Z,9.79
2022-11-09T22:41:50.233Z,9.79
2022-11-09T22:44:16.725Z,9.77
2022-11-09T22:46:43.118Z,9.75
2022-11-09T22:49:10.294Z,9.73
2022-11-09T22:51:36.832Z,9.70
2022-11-09T22:54:03.498Z,9.68
2022-11-09T22:56:29.993Z,9.68
2022-11-09T22:58:56.448Z,9.67
2022-11-09T23:01:23.146Z,9.66
2022-11-09T23:03:49.592Z,9.65
2022-11-09T23:06:21.536Z,9.61
2022-11-09T23:08:48.163Z,9.60
2022-11-09T23:11:20.598Z,9.57
2022-11-09T23:13:52.162Z,9.59
2022-11-09T23:16:19.046Z,9.61
2022-11-09T23:18:55.101Z,9.67
2022-11-09T23:21:21.516Z,9.72
2022-11-09T23:23:48.703Z,9.74
2022-11-09T23:26:15.535Z,9.77
2022-11-09T23:28:44.925Z,9.78
2022-11-09T23:31:14.298Z,9.79
2022-11-09T23:33:41.111Z,9.79
2022-11-09T23:36:08.371Z,9.78
2022-11-09T23:38:37.251Z,9.75
2022-11-09T23:41:05.601Z,9.70
2022-11-09T23:43:32.137Z,9.64
2022-11-09T23:46:07.114Z,9.57
2022-11-09T23:48:33.625Z,9.53
2022-11-09T23:51:01.629Z,9.51
2022-11-09T23:53:29.675Z,9.50
2022-11-09T23:56:05.373Z,9.48
2022-11-09T23:58:31.874Z,9.47
